createdAt,value
2017-12-02T00:02:18.877Z,-1.84
2017-12-02T00:04:44.987Z,-1.91
2017-12-02T00:07:11.092Z,-1.88
2017-12-02T00:09:37.245Z,-1.98
2017-12-02T00:12:03.311Z,-2.11
2017-12-02T00:14:29.404Z,-1.96
2017-12-02T00:16:55.537Z,-1.81
2017-12-02T00:19:21.739Z,-1.70
2017-12-02T00:21:47.856Z,-1.81
2017-12-02T00:24:13.885Z,-1.87
2017-12-02T00:26:40.037Z,-1.93
2017-12-02T00:29:06.144Z,-2.12
2017-12-02T00:31:32.359Z,-2.19
2017-12-02T00:33:58.480Z,-2.46
2017-12-02T00:36:24.696Z,-2.61
2017-12-02T00:38:50.760Z,-2.62
2017-12-02T00:41:16.845Z,-2.67
2017-12-02T00:43:42.993Z,-2.53
2017-12-02T00:46:09.185Z,-2.33
2017-12-02T00:48:35.320Z,-2.49
2017-12-02T00:51:01.438Z,-2.52
2017-12-02T00:53:27.643Z,-2.54
2017-12-02T00:55:53.792Z,-2.56
2017-12-02T00:58:19.892Z,-2.57
2017-12-02T01:00:46.016Z,-2.58
2017-12-02T01:03:12.113Z,-2.50
2017-12-02T01:05:38.231Z,-2.62
2017-12-02T01:08:04.332Z,-2.77
2017-12-02T01:10:30.520Z,-2.71
2017-12-02T01:12:56.624Z,-2.64
2017-12-02T01:15:22.725Z,-2.70
2017-12-02T01:17:48.876Z,-2.64
2017-12-02T01:20:15.012Z,-2.56
2017-12-02T01:22:41.175Z,-2.59
2017-12-02T01:25:07.323Z,-2.64
2017-12-02T01:27:33.441Z,-2.63
2017-12-02T01:29:59.565Z,-2.75
2017-12-02T01:32:25.720Z,-2.73
2017-12-02T01:34:51.837Z,-2.74
2017-12-02T01:37:17.948Z,-2.68
2017-12-02T01:39:44.116Z,-2.69
2017-12-02T01:42:10.207Z,-2.74
2017-12-02T01:44:36.306Z,-2.76
2017-12-02T01:47:02.435Z,-2.85
2017-12-02T01:49:28.501Z,-2.89
2017-12-02T01:51:54.652Z,-2.90
2017-12-02T01:54:20.824Z,-2.92
2017-12-02T01:56:47.447Z,-2.94
2017-12-02T01:59:13.624Z,-2.97
2017-12-02T02:01:39.807Z,-3.03
2017-12-02T02:04:05.939Z,-2.95
2017-12-02T02:06:32.054Z,-2.85
2017-12-02T02:08:58.160Z,-3.05
2017-12-02T02:11:24.256Z,-3.10
2017-12-02T02:13:50.358Z,-3.08
2017-12-02T02:16:16.506Z,-3.12
2017-12-02T02:18:42.631Z,-3.16
2017-12-02T02:21:09.108Z,-3.22
2017-12-02T02:23:35.202Z,-3.38
2017-12-02T02:26:01.342Z,-3.40
2017-12-02T02:28:27.463Z,-3.28
2017-12-02T02:30:53.585Z,-3.25
2017-12-02T02:33:20.176Z,-3.26
2017-12-02T02:35:46.360Z,-3.32
2017-12-02T02:38:12.459Z,-3.34
2017-12-02T02:40:38.604Z,-3.42
2017-12-02T02:43:04.767Z,-3.34
2017-12-02T02:45:30.889Z,-3.47
2017-12-02T02:47:56.992Z,-3.45
2017-12-02T02:50:23.152Z,-3.43
2017-12-02T02:52:49.284Z,-3.44
2017-12-02T02:55:15.442Z,-3.43
2017-12-02T02:57:41.575Z,-3.43
2017-12-02T03:00:07.712Z,-3.45
2017-12-02T03:02:33.859Z,-3.44
2017-12-02T03:04:59.896Z,-3.46
2017-12-02T03:07:25.988Z,-3.48
2017-12-02T03:09:52.144Z,-3.47
2017-12-02T03:12:18.210Z,-3.50
2017-12-02T03:14:44.283Z,-3.60
2017-12-02T03:17:10.394Z,-3.50
2017-12-02T03:19:36.499Z,-3.50
2017-12-02T03:22:02.609Z,-3.51
2017-12-02T03:24:28.680Z,-3.52
2017-12-02T03:26:54.796Z,-3.61
2017-12-02T03:29:20.852Z,-3.66
2017-12-02T03:31:46.979Z,-3.64
2017-12-02T03:34:13.099Z,-3.76
2017-12-02T03:36:39.252Z,-3.82
2017-12-02T03:39:05.325Z,-3.75
2017-12-02T03:41:32.004Z,-3.61
2017-12-02T03:43:58.068Z,-3.68
2017-12-02T03:46:24.127Z,-3.72
2017-12-02T03:48:50.215Z,-3.76
2017-12-02T03:51:16.316Z,-3.83
2017-12-02T03:53:42.432Z,-3.84
2017-12-02T03:56:08.543Z,-3.81
2017-12-02T03:58:34.676Z,-3.82
2017-12-02T04:01:00.844Z,-3.90
2017-12-02T04:03:26.935Z,-3.91
2017-12-02T04:05:53.049Z,-3.87
2017-12-02T04:08:19.156Z,-3.88
2017-12-02T04:10:45.385Z,-3.92
2017-12-02T04:13:11.472Z,-3.89
2017-12-02T04:15:37.544Z,-4.02
2017-12-02T04:18:03.711Z,-4.01
2017-12-02T04:20:29.907Z,-4.11
2017-12-02T04:22:55.991Z,-4.17
2017-12-02T04:25:22.068Z,-4.14
2017-12-02T04:27:48.161Z,-4.28
2017-12-02T04:30:14.282Z,-4.35
2017-12-02T04:32:40.360Z,-4.50
2017-12-02T04:35:06.437Z,-4.40
2017-12-02T04:37:32.543Z,-4.32
2017-12-02T04:39:58.572Z,-4.30
2017-12-02T04:42:24.663Z,-4.32
2017-12-02T04:44:50.740Z,-4.31
2017-12-02T04:47:16.853Z,-4.28
2017-12-02T04:49:42.944Z,-4.24
2017-12-02T04:52:09.061Z,-4.20
2017-12-02T04:54:35.140Z,-4.32
2017-12-02T04:57:01.305Z,-4.48
2017-12-02T04:59:27.438Z,-4.58
2017-12-02T05:01:53.569Z,-4.56
2017-12-02T05:04:19.680Z,-4.47
2017-12-02T05:06:45.755Z,-4.52
2017-12-02T05:09:11.851Z,-4.45
2017-12-02T05:11:37.931Z,-4.49
2017-12-02T05:14:04.096Z,-4.42
2017-12-02T05:16:30.200Z,-4.42
2017-12-02T05:18:56.236Z,-4.49
2017-12-02T05:21:22.321Z,-4.50
2017-12-02T05:23:48.397Z,-4.48
2017-12-02T05:26:14.465Z,-4.51
2017-12-02T05:28:40.579Z,-4.54
2017-12-02T05:31:06.644Z,-4.61
2017-12-02T05:33:32.728Z,-4.88
2017-12-02T05:35:58.756Z,-4.66
2017-12-02T05:38:24.876Z,-4.75
2017-12-02T05:40:50.961Z,-4.96
2017-12-02T05:43:17.015Z,-4.80
2017-12-02T05:45:43.116Z,-4.95
2017-12-02T05:48:09.260Z,-4.85
2017-12-02T05:50:35.344Z,-4.87
2017-12-02T05:53:01.477Z,-4.84
2017-12-02T05:55:27.576Z,-4.77
2017-12-02T05:57:53.624Z,-4.72
2017-12-02T06:00:19.769Z,-4.76
2017-12-02T06:02:46.220Z,-4.74
2017-12-02T06:05:12.308Z,-4.79
2017-12-02T06:07:38.440Z,-4.82
2017-12-02T06:10:04.488Z,-4.92
2017-12-02T06:12:30.560Z,-4.92
2017-12-02T06:14:56.720Z,-5.10
2017-12-02T06:17:22.796Z,-4.94
2017-12-02T06:19:48.889Z,-4.94
2017-12-02T06:22:14.969Z,-4.94
2017-12-02T06:24:41.027Z,-4.96
2017-12-02T06:27:07.139Z,-4.98
2017-12-02T06:29:33.244Z,-4.98
2017-12-02T06:31:59.335Z,-5.03
2017-12-02T06:34:25.472Z,-5.01
2017-12-02T06:36:51.616Z,-5.03
2017-12-02T06:39:18.263Z,-4.91
2017-12-02T06:41:44.384Z,-5.09
2017-12-02T06:44:10.500Z,-5.03
2017-12-02T06:46:36.606Z,-5.00
2017-12-02T06:49:02.748Z,-5.04
2017-12-02T06:51:28.867Z,-5.04
2017-12-02T06:53:54.996Z,-5.05
2017-12-02T06:56:21.086Z,-5.02
2017-12-02T06:58:47.152Z,-5.03
2017-12-02T07:01:13.283Z,-5.04
2017-12-02T07:03:39.411Z,-4.94
2017-12-02T07:06:05.531Z,-4.93
2017-12-02T07:08:31.631Z,-4.97
2017-12-02T07:10:57.783Z,-4.93
2017-12-02T07:13:23.916Z,-5.07
2017-12-02T07:15:50.063Z,-5.08
2017-12-02T07:18:16.187Z,-5.18
2017-12-02T07:20:42.212Z,-5.05
2017-12-02T07:23:08.350Z,-4.99
2017-12-02T07:25:34.488Z,-4.89
2017-12-02T07:28:00.574Z,-4.91
2017-12-02T07:30:26.698Z,-5.04
2017-12-02T07:32:52.779Z,-5.04
2017-12-02T07:35:18.904Z,-4.94
2017-12-02T07:37:45.012Z,-5.05
2017-12-02T07:40:11.108Z,-5.01
2017-12-02T07:42:37.308Z,-4.85
2017-12-02T07:45:03.504Z,-4.71
2017-12-02T07:47:29.595Z,-4.61
2017-12-02T07:49:55.693Z,-4.46
2017-12-02T07:52:21.720Z,-4.37
2017-12-02T07:54:47.839Z,-4.56
2017-12-02T07:57:13.888Z,-4.52
2017-12-02T07:59:40.052Z,-4.46
2017-12-02T08:02:06.160Z,-4.25
2017-12-02T08:04:32.321Z,-4.28
2017-12-02T08:06:58.347Z,-4.20
2017-12-02T08:09:24.399Z,-4.37
2017-12-02T08:11:50.539Z,-4.13
2017-12-02T08:14:16.635Z,-3.92
2017-12-02T08:16:42.737Z,-3.96
2017-12-02T08:19:08.847Z,-3.99
2017-12-02T08:21:34.894Z,-3.93
2017-12-02T08:24:00.961Z,-3.87
2017-12-02T08:26:27.103Z,-3.80
2017-12-02T08:28:53.209Z,-3.71
2017-12-02T08:31:19.336Z,-3.63
2017-12-02T08:33:45.430Z,-3.60
2017-12-02T08:36:11.513Z,-3.44
2017-12-02T08:38:37.607Z,-3.28
2017-12-02T08:41:03.720Z,-3.33
2017-12-02T08:43:33.753Z,-3.36
2017-12-02T08:46:00.675Z,-2.89
2017-12-02T08:48:27.700Z,-2.78
2017-12-02T08:50:53.847Z,-2.89
2017-12-02T08:53:19.982Z,-2.98
2017-12-02T08:55:46.043Z,-3.01
2017-12-02T08:58:12.136Z,-2.97
2017-12-02T09:00:38.232Z,-2.97
2017-12-02T09:03:04.373Z,-2.93
2017-12-02T09:05:30.445Z,-2.91
2017-12-02T09:07:56.530Z,-2.82
2017-12-02T09:10:22.610Z,-2.74
2017-12-02T09:12:48.700Z,-2.68
2017-12-02T09:15:14.783Z,-2.69
2017-12-02T09:17:40.867Z,-2.63
2017-12-02T09:20:06.992Z,-2.61
2017-12-02T09:22:33.087Z,-2.53
2017-12-02T09:24:59.164Z,-2.45
2017-12-02T09:27:25.244Z,-2.43
2017-12-02T09:29:51.368Z,-2.35
2017-12-02T09:32:18.065Z,-2.31
2017-12-02T09:34:44.152Z,-2.33
2017-12-02T09:37:10.302Z,-2.28
2017-12-02T09:39:36.363Z,-2.21
2017-12-02T09:42:02.462Z,-2.19
2017-12-02T09:44:28.580Z,-2.12
2017-12-02T09:46:54.650Z,-2.10
2017-12-02T09:49:20.701Z,-2.04
2017-12-02T09:51:46.764Z,-1.99
2017-12-02T09:54:12.875Z,-1.84
2017-12-02T09:56:38.945Z,-1.75
2017-12-02T09:59:04.988Z,-1.62
2017-12-02T10:01:31.148Z,-1.54
2017-12-02T10:03:57.226Z,-1.49
2017-12-02T10:06:23.307Z,-1.39
2017-12-02T10:08:49.424Z,-1.18
2017-12-02T10:11:15.515Z,-1.21
2017-12-02T10:13:41.670Z,-1.19
2017-12-02T10:16:07.794Z,-1.22
2017-12-02T10:18:33.927Z,-1.16
2017-12-02T10:20:59.959Z,-1.05
2017-12-02T10:23:26.126Z,-1.11
2017-12-02T10:25:52.365Z,-1.07
2017-12-02T10:28:18.468Z,-0.99
2017-12-02T10:30:44.551Z,-1.03
2017-12-02T10:33:10.706Z,-0.98
2017-12-02T10:35:36.852Z,-1.01
2017-12-02T10:38:02.956Z,-1.07
2017-12-02T10:40:29.141Z,-1.07
2017-12-02T10:42:55.434Z,-0.98
2017-12-02T10:45:21.520Z,-0.84
2017-12-02T10:47:47.644Z,-0.86
2017-12-02T10:50:13.822Z,-0.80
2017-12-02T10:52:39.941Z,-0.72
2017-12-02T10:55:06.016Z,-0.79
2017-12-02T10:57:32.112Z,-0.79
2017-12-02T10:59:58.243Z,-0.83
2017-12-02T11:02:24.308Z,-0.90
2017-12-02T11:04:50.476Z,-0.77
2017-12-02T11:07:16.575Z,-0.78
2017-12-02T11:09:42.657Z,-0.65
2017-12-02T11:12:08.724Z,-0.76
2017-12-02T11:14:34.914Z,-0.83
2017-12-02T11:17:01.057Z,-0.94
2017-12-02T11:19:27.166Z,-0.88
2017-12-02T11:21:53.326Z,-0.81
2017-12-02T11:24:19.499Z,-0.65
2017-12-02T11:26:45.722Z,-0.64
2017-12-02T11:29:11.924Z,-0.54
2017-12-02T11:31:37.980Z,-0.57
2017-12-02T11:34:04.124Z,-0.55
2017-12-02T11:36:30.280Z,-0.64
2017-12-02T11:38:56.424Z,-0.58
2017-12-02T11:41:22.547Z,-0.55
2017-12-02T11:43:48.668Z,-0.50
2017-12-02T11:46:14.752Z,-0.23
2017-12-02T11:48:40.957Z,0.09
2017-12-02T11:51:07.195Z,-0.06
2017-12-02T11:53:33.400Z,-0.13
2017-12-02T11:55:59.549Z,-0.21
2017-12-02T11:58:25.674Z,-0.32
2017-12-02T12:00:51.838Z,-0.35
2017-12-02T12:03:17.958Z,-0.37
2017-12-02T12:05:44.082Z,-0.37
2017-12-02T12:08:10.235Z,-0.37
2017-12-02T12:10:36.353Z,-0.43
2017-12-02T12:13:02.557Z,-0.24
2017-12-02T12:15:28.713Z,-0.33
2017-12-02T12:17:54.914Z,-0.28
2017-12-02T12:20:21.027Z,-0.36
2017-12-02T12:22:47.149Z,-0.41
2017-12-02T12:25:13.285Z,-0.36
2017-12-02T12:27:39.392Z,-0.25
2017-12-02T12:30:05.549Z,-0.22
2017-12-02T12:32:31.733Z,-0.24
2017-12-02T12:34:58.653Z,-0.17
2017-12-02T12:37:24.776Z,-0.11
2017-12-02T12:39:50.904Z,0.00
2017-12-02T12:42:17.044Z,0.15
2017-12-02T12:44:43.181Z,0.07
2017-12-02T12:47:09.309Z,-0.04
2017-12-02T12:49:35.548Z,-0.20
2017-12-02T12:52:01.700Z,-0.20
2017-12-02T12:54:27.867Z,-0.23
2017-12-02T12:56:54.016Z,-0.19
2017-12-02T12:59:20.298Z,-0.33
2017-12-02T13:01:46.465Z,-0.36
2017-12-02T13:04:12.656Z,-0.11
2017-12-02T13:06:38.856Z,-0.17
2017-12-02T13:09:04.964Z,-0.24
2017-12-02T13:11:31.120Z,-0.36
2017-12-02T13:13:57.268Z,-0.38
2017-12-02T13:16:23.360Z,-0.47
2017-12-02T13:18:49.539Z,-0.42
2017-12-02T13:21:15.643Z,-0.29
2017-12-02T13:23:41.755Z,-0.32
2017-12-02T13:26:07.929Z,-0.41
2017-12-02T13:28:34.071Z,-0.44
2017-12-02T13:31:00.220Z,-0.48
2017-12-02T13:33:26.323Z,-0.60
2017-12-02T13:35:52.459Z,-0.55
2017-12-02T13:38:18.571Z,-0.46
2017-12-02T13:40:44.708Z,-0.43
2017-12-02T13:43:10.833Z,-0.51
2017-12-02T13:45:36.965Z,-0.52
2017-12-02T13:48:03.102Z,-0.49
2017-12-02T13:50:29.391Z,-0.62
2017-12-02T13:52:55.607Z,-0.58
2017-12-02T13:55:21.843Z,-0.49
2017-12-02T13:57:47.905Z,-0.45
2017-12-02T14:00:14.044Z,-0.48
2017-12-02T14:02:40.200Z,-0.53
2017-12-02T14:05:06.508Z,-0.50
2017-12-02T14:07:32.638Z,-0.43
2017-12-02T14:09:58.784Z,-0.38
2017-12-02T14:12:24.884Z,-0.38
2017-12-02T14:14:51.061Z,-0.45
2017-12-02T14:17:17.102Z,-0.48
2017-12-02T14:19:43.244Z,-0.54
2017-12-02T14:22:09.330Z,-0.52
2017-12-02T14:24:35.467Z,-0.56
2017-12-02T14:27:01.612Z,-0.61
2017-12-02T14:29:27.737Z,-0.56
2017-12-02T14:31:53.908Z,-0.67
2017-12-02T14:34:20.039Z,-0.62
2017-12-02T14:36:46.156Z,-0.77
2017-12-02T14:39:12.357Z,-0.68
2017-12-02T14:41:38.453Z,-0.73
2017-12-02T14:44:04.584Z,-0.81
2017-12-02T14:46:30.677Z,-0.86
2017-12-02T14:48:56.781Z,-0.86
2017-12-02T14:51:22.968Z,-0.81
2017-12-02T14:53:49.052Z,-0.82
2017-12-02T14:56:15.168Z,-0.83
2017-12-02T14:58:41.273Z,-0.88
2017-12-02T15:01:07.391Z,-0.92
2017-12-02T15:03:33.687Z,-0.82
2017-12-02T15:05:59.802Z,-0.90
2017-12-02T15:08:25.996Z,-0.87
2017-12-02T15:10:52.121Z,-0.87
2017-12-02T15:13:18.246Z,-0.82
2017-12-02T15:15:44.365Z,-0.92
2017-12-02T15:18:11.359Z,-0.87
2017-12-02T15:20:37.600Z,-0.88
2017-12-02T15:23:03.776Z,-0.93
2017-12-02T15:25:29.900Z,-0.87
2017-12-02T15:27:56.092Z,-0.86
2017-12-02T15:30:23.060Z,-0.89
2017-12-02T15:32:49.211Z,-0.92
2017-12-02T15:35:15.297Z,-0.90
2017-12-02T15:37:41.469Z,-0.92
2017-12-02T15:40:07.592Z,-1.00
2017-12-02T15:42:33.696Z,-0.99
2017-12-02T15:44:59.892Z,-0.95
2017-12-02T15:47:26.036Z,-1.00
2017-12-02T15:49:52.206Z,-1.03
2017-12-02T15:52:18.331Z,-0.99
2017-12-02T15:54:44.512Z,-0.96
2017-12-02T15:57:10.783Z,-1.02
2017-12-02T15:59:36.946Z,-0.97
2017-12-02T16:02:03.090Z,-0.97
2017-12-02T16:04:29.209Z,-0.99
2017-12-02T16:06:55.340Z,-1.02
2017-12-02T16:09:21.568Z,-0.98
2017-12-02T16:11:47.739Z,-1.01
2017-12-02T16:14:13.960Z,-0.98
2017-12-02T16:16:40.220Z,-1.00
2017-12-02T16:19:06.307Z,-0.96
2017-12-02T16:21:32.428Z,-0.99
2017-12-02T16:23:58.592Z,-0.98
2017-12-02T16:26:24.644Z,-1.06
2017-12-02T16:28:50.792Z,-1.01
2017-12-02T16:31:16.965Z,-1.08
2017-12-02T16:33:43.146Z,-1.08
2017-12-02T16:36:09.293Z,-1.05
2017-12-02T16:38:35.384Z,-1.12
2017-12-02T16:41:01.603Z,-1.13
2017-12-02T16:43:27.797Z,-1.10
2017-12-02T16:45:53.921Z,-1.05
2017-12-02T16:48:19.984Z,-1.07
2017-12-02T16:50:46.299Z,-1.04
2017-12-02T16:53:12.473Z,-1.00
2017-12-02T16:55:38.553Z,-0.97
2017-12-02T16:58:04.761Z,-1.08
2017-12-02T17:00:31.016Z,-1.09
2017-12-02T17:02:57.137Z,-1.03
2017-12-02T17:05:23.264Z,-1.09
2017-12-02T17:07:49.492Z,-1.15
2017-12-02T17:10:15.657Z,-1.12
2017-12-02T17:12:41.745Z,-1.07
2017-12-02T17:15:07.960Z,-1.02
2017-12-02T17:17:34.123Z,-1.02
2017-12-02T17:20:00.338Z,-1.06
2017-12-02T17:22:26.466Z,-1.06
2017-12-02T17:24:52.556Z,-1.08
2017-12-02T17:27:18.649Z,-1.01
2017-12-02T17:29:44.784Z,-0.88
2017-12-02T17:32:10.942Z,-0.90
2017-12-02T17:34:37.025Z,-0.81
2017-12-02T17:37:03.168Z,-0.74
2017-12-02T17:39:29.319Z,-0.82
2017-12-02T17:41:55.499Z,-0.87
2017-12-02T17:44:21.636Z,-0.98
2017-12-02T17:46:47.723Z,-0.96
2017-12-02T17:49:13.842Z,-1.04
2017-12-02T17:51:39.916Z,-0.98
2017-12-02T17:54:06.058Z,-1.02
2017-12-02T17:56:32.371Z,-0.97
2017-12-02T17:58:58.495Z,-0.99
2017-12-02T18:01:24.637Z,-1.05
2017-12-02T18:03:50.758Z,-1.09
2017-12-02T18:06:16.922Z,-1.07
2017-12-02T18:08:43.068Z,-1.08
2017-12-02T18:11:09.205Z,-1.02
2017-12-02T18:13:35.350Z,-1.10
2017-12-02T18:16:01.480Z,-1.10
2017-12-02T18:18:27.660Z,-1.06
2017-12-02T18:20:53.757Z,-1.06
2017-12-02T18:23:19.863Z,-1.07
2017-12-02T18:25:45.988Z,-1.09
2017-12-02T18:28:12.232Z,-1.11
2017-12-02T18:30:38.367Z,-1.06
2017-12-02T18:33:04.518Z,-1.05
2017-12-02T18:35:30.649Z,-1.03
2017-12-02T18:37:56.779Z,-1.05
2017-12-02T18:40:22.900Z,-1.05
2017-12-02T18:42:49.052Z,-1.14
2017-12-02T18:45:15.131Z,-1.20
2017-12-02T18:47:41.270Z,-1.11
2017-12-02T18:50:07.366Z,-1.14
2017-12-02T18:52:33.528Z,-1.08
2017-12-02T18:54:59.657Z,-1.14
2017-12-02T18:57:25.794Z,-1.15
2017-12-02T18:59:51.940Z,-1.22
2017-12-02T19:02:18.156Z,-1.18
2017-12-02T19:04:44.270Z,-1.14
2017-12-02T19:07:10.458Z,-1.19
2017-12-02T19:09:36.629Z,-1.14
2017-12-02T19:12:02.820Z,-1.23
2017-12-02T19:14:28.969Z,-1.16
2017-12-02T19:16:55.175Z,-1.14
2017-12-02T19:19:21.348Z,-1.12
2017-12-02T19:21:47.569Z,-1.19
2017-12-02T19:24:13.659Z,-1.15
2017-12-02T19:26:39.809Z,-1.12
2017-12-02T19:29:06.052Z,-1.15
2017-12-02T19:31:32.205Z,-1.26
2017-12-02T19:33:58.501Z,-1.26
2017-12-02T19:36:24.636Z,-1.30
2017-12-02T19:38:50.774Z,-1.32
2017-12-02T19:41:17.127Z,-1.25
2017-12-02T19:43:43.353Z,-1.29
2017-12-02T19:46:09.538Z,-1.36
2017-12-02T19:48:35.700Z,-1.28
2017-12-02T19:51:01.895Z,-1.36
2017-12-02T19:53:28.074Z,-1.30
2017-12-02T19:55:54.215Z,-1.29
2017-12-02T19:58:20.407Z,-1.39
2017-12-02T20:00:46.547Z,-1.38
2017-12-02T20:03:12.808Z,-1.46
2017-12-02T20:05:38.972Z,-1.50
2017-12-02T20:08:05.117Z,-1.54
2017-12-02T20:10:31.365Z,-1.53
2017-12-02T20:12:58.267Z,-1.57
2017-12-02T20:15:24.541Z,-1.63
2017-12-02T20:17:50.798Z,-1.65
2017-12-02T20:20:17.223Z,-1.68
2017-12-02T20:22:43.505Z,-1.76
2017-12-02T20:25:09.723Z,-1.84
2017-12-02T20:27:35.949Z,-1.83
2017-12-02T20:30:02.122Z,-1.79
2017-12-02T20:32:28.450Z,-1.79
2017-12-02T20:44:39.737Z,-1.87
2017-12-02T20:47:06.036Z,-1.85
2017-12-02T20:49:32.348Z,-1.84
2017-12-02T20:51:58.537Z,-1.86
2017-12-02T20:54:24.801Z,-1.91
2017-12-02T20:56:50.957Z,-1.94
2017-12-02T20:59:17.136Z,-1.97
2017-12-02T21:01:43.493Z,-2.01
2017-12-02T21:04:09.726Z,-2.05
2017-12-02T21:06:35.925Z,-2.12
2017-12-02T21:09:02.156Z,-2.19
2017-12-02T21:11:28.372Z,-2.20
2017-12-02T21:13:54.590Z,-2.21
2017-12-02T21:16:20.982Z,-2.24
2017-12-02T21:18:47.157Z,-2.27
2017-12-02T21:21:13.488Z,-2.29
2017-12-02T21:23:39.727Z,-2.44
2017-12-02T21:26:05.966Z,-2.50
2017-12-02T21:28:32.190Z,-2.52
2017-12-02T21:30:58.350Z,-2.59
2017-12-02T21:33:24.594Z,-2.89
2017-12-02T21:35:50.783Z,-2.78
2017-12-02T21:38:16.984Z,-2.64
2017-12-02T21:40:43.345Z,-2.66
2017-12-02T21:43:09.520Z,-2.67
2017-12-02T21:45:36.585Z,-2.61
2017-12-02T21:48:02.781Z,-2.59
2017-12-02T21:50:28.869Z,-2.73
2017-12-02T21:52:55.013Z,-2.79
2017-12-02T21:55:21.145Z,-2.66
2017-12-02T21:57:47.216Z,-2.44
2017-12-02T22:00:13.425Z,-2.44
2017-12-02T22:02:39.531Z,-2.64
2017-12-02T22:05:05.768Z,-2.80
2017-12-02T22:07:31.884Z,-2.94
2017-12-02T22:09:57.975Z,-2.91
2017-12-02T22:12:24.109Z,-2.82
2017-12-02T22:14:50.292Z,-2.81
2017-12-02T22:17:16.432Z,-2.81
2017-12-02T22:19:42.568Z,-2.94
2017-12-02T22:22:08.705Z,-2.84
2017-12-02T22:24:34.881Z,-2.83
2017-12-02T22:27:01.000Z,-2.80
2017-12-02T22:29:27.166Z,-2.94
2017-12-02T22:31:54.960Z,-2.93
2017-12-02T22:36:58.737Z,-3.09
2017-12-02T22:39:24.809Z,-3.07
2017-12-02T22:41:51.033Z,-3.07
2017-12-02T22:44:17.168Z,-2.95
2017-12-02T22:46:43.422Z,-2.92
2017-12-02T22:49:09.568Z,-2.97
2017-12-02T22:51:35.762Z,-3.08
2017-12-02T22:54:02.884Z,-3.07
2017-12-02T22:56:29.060Z,-3.04
2017-12-02T22:58:55.317Z,-3.01
2017-12-02T23:01:21.528Z,-2.88
2017-12-02T23:03:47.839Z,-2.94
2017-12-02T23:06:13.960Z,-3.01
2017-12-02T23:08:40.247Z,-3.13
2017-12-02T23:11:06.489Z,-3.25
2017-12-02T23:13:32.594Z,-3.40
2017-12-02T23:15:58.806Z,-3.42
2017-12-02T23:18:24.981Z,-3.54
2017-12-02T23:20:51.306Z,-3.67
2017-12-02T23:23:17.435Z,-3.75
2017-12-02T23:25:43.561Z,-3.79
2017-12-02T23:28:09.737Z,-3.77
2017-12-02T23:30:35.904Z,-3.76
2017-12-02T23:33:02.036Z,-3.78
2017-12-02T23:35:28.158Z,-3.81
2017-12-02T23:37:54.279Z,-3.84
2017-12-02T23:40:20.410Z,-3.78
2017-12-02T23:42:46.739Z,-3.74
2017-12-02T23:45:12.903Z,-3.76
2017-12-02T23:47:39.092Z,-3.82
2017-12-02T23:50:05.239Z,-3.84
2017-12-02T23:52:31.364Z,-3.75
2017-12-02T23:54:57.549Z,-3.89
2017-12-02T23:57:23.675Z,-3.96
2017-12-02T23:59:49.819Z,-3.92
